createdAt,value
2019-02-27T00:02:56.662Z,8.57
2019-02-27T00:06:14.966Z,7.70
2019-02-27T00:09:26.484Z,7.70
2019-02-27T00:12:40.330Z,7.90
2019-02-27T00:15:54.180Z,7.43
2019-02-27T00:19:08.009Z,6.77
2019-02-27T00:22:25.126Z,7.23
2019-02-27T00:25:39.036Z,7.07
2019-02-27T00:28:55.976Z,6.83
2019-02-27T00:32:08.677Z,7.10
2019-02-27T00:35:22.493Z,6.70
2019-02-27T00:38:36.351Z,6.83
2019-02-27T00:41:50.215Z,7.30
2019-02-27T00:45:09.560Z,7.60
2019-02-27T00:48:26.003Z,7.63
2019-02-27T00:51:39.159Z,6.83
2019-02-27T00:54:52.971Z,6.93
2019-02-27T00:58:06.818Z,6.87
2019-02-27T01:01:20.656Z,7.30
2019-02-27T01:04:35.109Z,6.93
2019-02-27T01:07:53.853Z,7.03
2019-02-27T01:11:05.384Z,7.07
2019-02-27T01:14:19.329Z,7.00
2019-02-27T01:17:33.476Z,7.50
2019-02-27T01:20:47.416Z,8.03
2019-02-27T01:24:01.264Z,7.27
2019-02-27T01:27:15.072Z,7.60
2019-02-27T01:30:28.908Z,6.77
2019-02-27T01:33:42.882Z,7.07
2019-02-27T01:36:58.081Z,6.80
2019-02-27T01:40:17.528Z,7.20
2019-02-27T01:43:29.957Z,6.30
2019-02-27T01:46:43.815Z,7.17
2019-02-27T01:49:57.675Z,6.90
2019-02-27T01:53:11.520Z,7.00
2019-02-27T01:56:28.932Z,6.70
2019-02-27T01:59:41.083Z,6.73
2019-02-27T02:02:55.240Z,7.33
2019-02-27T02:06:09.076Z,6.67
2019-02-27T02:09:31.204Z,6.60
2019-02-27T02:12:51.531Z,6.50
2019-02-27T02:16:12.267Z,6.60
2019-02-27T02:19:35.877Z,6.60
2019-02-27T02:23:08.683Z,7.17
2019-02-27T02:26:44.374Z,6.33
2019-02-27T02:30:13.932Z,6.13
2019-02-27T02:34:06.236Z,6.37
2019-02-27T02:37:47.294Z,6.50
2019-02-27T02:41:10.976Z,6.67
2019-02-27T02:44:43.923Z,6.57
2019-02-27T02:48:22.629Z,6.67
2019-02-27T02:51:49.326Z,7.10
2019-02-27T02:55:24.717Z,6.57
2019-02-27T02:58:54.580Z,7.80
2019-02-27T03:02:23.472Z,7.93
2019-02-27T03:05:43.450Z,7.93
2019-02-27T03:09:06.867Z,7.43
2019-02-27T03:12:30.955Z,7.53
2019-02-27T03:15:46.819Z,7.57
2019-02-27T03:19:10.436Z,7.37
2019-02-27T03:22:40.187Z,7.77
2019-02-27T03:25:56.167Z,7.20
2019-02-27T03:29:17.349Z,7.93
2019-02-27T03:32:50.371Z,6.90
2019-02-27T03:36:25.721Z,6.80
2019-02-27T03:40:02.729Z,6.77
2019-02-27T03:43:45.962Z,7.33
2019-02-27T03:47:27.107Z,7.20
2019-02-27T03:50:56.962Z,6.80
2019-02-27T03:54:20.932Z,6.27
2019-02-27T03:57:56.038Z,6.37
2019-02-27T04:01:31.418Z,6.63
2019-02-27T04:05:14.939Z,6.60
2019-02-27T04:08:55.885Z,5.90
2019-02-27T04:12:09.901Z,6.57
2019-02-27T04:15:23.853Z,6.20
2019-02-27T04:18:37.459Z,6.63
2019-02-27T04:21:51.317Z,6.43
2019-02-27T04:25:06.973Z,6.53
2019-02-27T04:28:20.790Z,6.47
2019-02-27T04:31:34.759Z,6.20
2019-02-27T04:34:48.580Z,6.40
2019-02-27T04:38:02.481Z,7.07
2019-02-27T04:41:18.141Z,6.67
2019-02-27T04:44:32.051Z,6.30
2019-02-27T04:47:45.904Z,6.97
2019-02-27T04:51:00.007Z,6.83
2019-02-27T04:54:14.156Z,6.90
2019-02-27T04:57:28.000Z,6.87
2019-02-27T05:00:41.810Z,6.90
2019-02-27T05:03:55.652Z,7.20
2019-02-27T05:07:09.503Z,6.73
2019-02-27T05:10:23.356Z,6.63
2019-02-27T05:13:37.210Z,6.83
2019-02-27T05:16:51.046Z,6.97
2019-02-27T05:20:11.658Z,6.73
2019-02-27T05:23:22.856Z,7.10
2019-02-27T05:26:36.691Z,7.50
2019-02-27T05:29:50.531Z,7.73
2019-02-27T05:33:04.407Z,7.53
2019-02-27T05:36:18.246Z,7.80
2019-02-27T05:39:33.801Z,7.70
2019-02-27T05:42:47.839Z,7.23
2019-02-27T05:46:03.162Z,7.90
2019-02-27T05:49:17.409Z,7.50
2019-02-27T05:52:31.231Z,7.70
2019-02-27T05:55:45.099Z,7.33
2019-02-27T05:58:58.924Z,7.20
2019-02-27T06:02:12.746Z,7.40
2019-02-27T06:05:26.600Z,7.37
2019-02-27T06:08:40.490Z,7.23
2019-02-27T06:11:54.339Z,8.97
2019-02-27T06:15:12.004Z,7.10
2019-02-27T06:18:25.832Z,8.50
2019-02-27T06:21:39.714Z,8.10
2019-02-27T06:24:53.548Z,7.83
2019-02-27T06:28:07.388Z,7.97
2019-02-27T06:31:21.285Z,7.27
2019-02-27T06:34:35.103Z,6.70
2019-02-27T06:37:50.726Z,6.97
2019-02-27T06:41:04.813Z,6.70
2019-02-27T06:44:19.158Z,7.43
2019-02-27T06:47:35.563Z,7.03
2019-02-27T06:50:49.064Z,7.37
2019-02-27T06:54:02.995Z,6.80
2019-02-27T06:57:16.852Z,7.17
2019-02-27T07:00:35.762Z,7.40
2019-02-27T07:03:46.464Z,6.60
2019-02-27T07:07:00.634Z,6.90
2019-02-27T07:10:19.475Z,7.37
2019-02-27T07:13:32.119Z,7.53
2019-02-27T07:16:47.158Z,6.70
2019-02-27T07:20:00.994Z,7.00
2019-02-27T07:23:14.822Z,7.23
2019-02-27T07:26:28.673Z,7.30
2019-02-27T07:29:43.086Z,7.40
2019-02-27T07:32:57.338Z,7.00
2019-02-27T07:36:11.170Z,7.77
2019-02-27T07:39:25.029Z,9.87
2019-02-27T07:42:39.090Z,8.80
2019-02-27T07:45:54.337Z,8.97
2019-02-27T07:49:08.656Z,8.27
2019-02-27T07:52:22.523Z,8.90
2019-02-27T07:55:36.455Z,8.80
2019-02-27T07:58:50.295Z,10.97
2019-02-27T08:02:04.215Z,11.97
2019-02-27T08:05:18.186Z,9.53
2019-02-27T08:08:32.043Z,9.83
2019-02-27T08:11:47.295Z,8.97
2019-02-27T08:15:01.736Z,9.63
2019-02-27T08:18:15.579Z,9.40
2019-02-27T08:21:29.395Z,9.43
2019-02-27T08:24:43.239Z,10.00
2019-02-27T08:27:57.053Z,10.30
2019-02-27T08:31:10.917Z,10.53
2019-02-27T08:34:24.866Z,9.90
2019-02-27T08:37:38.701Z,9.37
2019-02-27T08:40:57.548Z,10.00
2019-02-27T08:44:08.298Z,9.03
2019-02-27T08:47:22.145Z,8.73
2019-02-27T08:50:35.988Z,8.60
2019-02-27T08:53:49.821Z,8.27
2019-02-27T08:57:03.679Z,8.47
2019-02-27T09:00:31.528Z,8.67
2019-02-27T09:03:45.351Z,8.33
2019-02-27T09:07:02.726Z,7.90
2019-02-27T09:10:23.329Z,8.67
2019-02-27T09:13:36.435Z,8.63
2019-02-27T09:16:50.284Z,7.90
2019-02-27T09:20:07.315Z,7.73
2019-02-27T09:23:21.176Z,8.57
2019-02-27T09:26:36.837Z,7.30
2019-02-27T09:29:54.398Z,8.60
2019-02-27T09:33:06.628Z,7.62
2019-02-27T09:36:20.500Z,7.23
2019-02-27T09:39:35.172Z,7.47
2019-02-27T09:42:50.301Z,8.10
2019-02-27T09:46:05.291Z,8.03
2019-02-27T09:49:19.136Z,7.47
2019-02-27T09:52:32.988Z,7.73
2019-02-27T09:55:46.820Z,6.67
2019-02-27T09:59:00.801Z,6.93
2019-02-27T10:02:14.632Z,7.15
2019-02-27T10:05:29.168Z,6.77
2019-02-27T10:08:43.020Z,6.70
2019-02-27T10:11:56.939Z,6.10
2019-02-27T10:15:10.894Z,6.57
2019-02-27T10:18:24.738Z,6.43
2019-02-27T10:21:38.556Z,6.40
2019-02-27T10:24:52.424Z,7.00
2019-02-27T10:28:06.284Z,6.35
2019-02-27T10:31:20.187Z,6.87
2019-02-27T10:34:34.032Z,6.20
2019-02-27T11:23:42.584Z,5.70
2019-02-27T11:26:57.015Z,5.37
2019-02-27T11:30:13.973Z,5.00
2019-02-27T11:33:32.756Z,5.30
2019-02-27T11:36:43.757Z,5.72
2019-02-27T11:39:57.598Z,6.40
2019-02-27T11:43:11.557Z,5.70
2019-02-27T11:46:25.770Z,6.15
2019-02-27T11:49:39.695Z,6.20
2019-02-27T11:52:53.538Z,5.72
2019-02-27T11:56:07.407Z,6.03
2019-02-27T11:59:21.320Z,5.90
2019-02-27T12:02:37.784Z,5.40
2019-02-27T12:05:50.975Z,6.30
2019-02-27T12:09:05.250Z,6.15
2019-02-27T12:12:22.518Z,5.92
2019-02-27T12:15:34.929Z,5.65
2019-02-27T12:18:48.788Z,5.87
2019-02-27T12:22:02.733Z,5.78
2019-02-27T12:25:18.384Z,5.55
2019-02-27T12:28:32.234Z,5.92
2019-02-27T12:31:48.405Z,5.45
2019-02-27T12:35:03.308Z,5.42
2019-02-27T12:38:17.159Z,5.85
2019-02-27T12:41:32.541Z,5.67
2019-02-27T12:44:46.941Z,5.28
2019-02-27T12:48:00.794Z,5.60
2019-02-27T12:51:14.646Z,5.17
2019-02-27T12:54:28.500Z,5.78
2019-02-27T12:57:42.423Z,5.62
2019-02-27T13:00:56.356Z,5.30
2019-02-27T13:04:10.233Z,5.03
2019-02-27T13:07:24.173Z,5.50
2019-02-27T13:10:38.053Z,4.42
2019-02-27T13:13:51.911Z,4.70
2019-02-27T13:17:05.737Z,4.62
2019-02-27T13:20:27.230Z,4.33
2019-02-27T13:23:42.369Z,4.15
2019-02-27T13:26:56.532Z,3.95
2019-02-27T13:30:13.894Z,4.47
2019-02-27T13:33:27.779Z,4.12
2019-02-27T13:36:41.755Z,3.40
2019-02-27T13:39:57.327Z,3.75
2019-02-27T13:43:11.341Z,4.20
2019-02-27T13:46:25.184Z,3.80
2019-02-27T13:49:39.047Z,3.42
2019-02-27T13:52:53.003Z,3.60
2019-02-27T13:56:06.884Z,3.77
2019-02-27T13:59:20.705Z,3.98
2019-02-27T14:02:38.266Z,4.00
2019-02-27T14:05:50.651Z,3.80
2019-02-27T14:09:07.011Z,3.50
2019-02-27T14:12:21.825Z,3.67
2019-02-27T14:15:35.664Z,3.50
2019-02-27T14:18:50.117Z,3.80
2019-02-27T14:22:07.111Z,3.50
2019-02-27T14:25:31.018Z,3.37
2019-02-27T14:28:41.745Z,3.12
2019-02-27T14:31:55.701Z,3.15
2019-02-27T14:35:09.685Z,2.80
2019-02-27T14:38:23.549Z,2.80
2019-02-27T14:41:37.397Z,2.58
2019-02-27T14:44:51.337Z,2.67
2019-02-27T14:48:05.295Z,2.92
2019-02-27T14:51:19.244Z,2.95
2019-02-27T14:54:33.089Z,3.00
2019-02-27T14:57:51.043Z,2.90
2019-02-27T15:01:05.923Z,2.55
2019-02-27T15:04:19.785Z,2.45
2019-02-27T15:07:33.636Z,2.90
2019-02-27T15:10:47.585Z,2.75
2019-02-27T15:14:01.471Z,2.60
2019-02-27T15:17:15.283Z,2.80
2019-02-27T15:20:30.106Z,2.62
2019-02-27T15:23:43.946Z,2.42
2019-02-27T15:26:57.806Z,2.87
2019-02-27T15:30:15.483Z,2.75
2019-02-27T15:33:29.448Z,2.70
2019-02-27T15:36:43.525Z,2.50
2019-02-27T15:39:57.382Z,2.35
2019-02-27T15:43:11.730Z,2.15
2019-02-27T15:46:25.906Z,2.45
2019-02-27T15:49:39.812Z,2.42
2019-02-27T15:52:54.725Z,2.90
2019-02-27T15:56:09.199Z,2.40
2019-02-27T15:59:23.072Z,2.27
2019-02-27T16:02:37.414Z,1.80
2019-02-27T16:05:51.597Z,2.20
2019-02-27T16:09:05.551Z,2.10
2019-02-27T16:12:19.966Z,2.00
2019-02-27T16:15:34.066Z,2.08
2019-02-27T16:18:49.422Z,2.20
2019-02-27T16:22:03.587Z,1.92
2019-02-27T16:25:20.468Z,1.85
2019-02-27T16:28:34.335Z,2.05
2019-02-27T16:31:48.295Z,1.95
2019-02-27T16:35:04.336Z,2.27
2019-02-27T16:38:19.553Z,1.70
2019-02-27T16:41:33.503Z,1.92
2019-02-27T16:44:47.355Z,1.87
2019-02-27T16:48:01.237Z,1.80
2019-02-27T16:51:15.599Z,1.80
2019-02-27T16:54:29.619Z,1.75
2019-02-27T16:57:43.624Z,1.57
2019-02-27T17:01:00.200Z,1.90
2019-02-27T17:04:14.099Z,1.80
2019-02-27T17:07:28.070Z,2.20
2019-02-27T17:10:41.985Z,1.87
2019-02-27T17:13:57.710Z,1.80
2019-02-27T17:17:11.663Z,2.17
2019-02-27T17:20:26.606Z,2.20
2019-02-27T17:23:43.791Z,2.25
2019-02-27T17:26:56.309Z,2.60
2019-02-27T17:30:18.936Z,12.20
2019-02-27T17:33:35.167Z,7.30
2019-02-27T17:36:48.549Z,4.60
2019-02-27T17:40:05.977Z,3.95
2019-02-27T17:43:19.826Z,3.60
2019-02-27T17:46:33.649Z,3.42
2019-02-27T17:49:47.903Z,3.30
2019-02-27T17:53:01.748Z,3.40
2019-02-27T17:56:16.262Z,2.90
2019-02-27T17:59:30.617Z,3.90
2019-02-27T18:02:44.503Z,3.17
2019-02-27T18:05:59.420Z,3.70
2019-02-27T18:09:14.353Z,3.93
2019-02-27T18:12:28.321Z,4.83
2019-02-27T18:15:42.262Z,4.93
2019-02-27T18:18:56.079Z,5.60
2019-02-27T18:22:13.969Z,5.87
2019-02-27T18:25:26.100Z,6.90
2019-02-27T18:28:40.045Z,7.00
2019-02-27T18:31:55.256Z,6.87
2019-02-27T18:35:09.186Z,6.53
2019-02-27T18:38:27.580Z,7.07
2019-02-27T18:41:46.474Z,9.60
2019-02-27T18:45:01.750Z,7.73
2019-02-27T18:48:15.651Z,7.37
2019-02-27T18:51:29.953Z,7.23
2019-02-27T18:54:45.489Z,6.97
2019-02-27T18:57:59.433Z,7.10
2019-02-27T19:01:13.822Z,7.17
2019-02-27T19:04:27.750Z,7.87
2019-02-27T19:07:41.650Z,7.03
2019-02-27T19:10:55.496Z,8.20
2019-02-27T19:14:09.483Z,8.93
2019-02-27T19:17:23.467Z,8.67
2019-02-27T19:21:00.203Z,8.53
2019-02-27T19:24:14.215Z,8.63
2019-02-27T19:27:28.214Z,9.20
2019-02-27T19:30:42.587Z,8.57
2019-02-27T19:33:56.897Z,8.23
2019-02-27T19:37:10.879Z,7.70
2019-02-27T19:40:29.915Z,7.90
2019-02-27T19:43:40.682Z,7.30
2019-02-27T19:46:54.628Z,7.60
2019-02-27T19:50:11.209Z,7.27
2019-02-27T19:53:24.496Z,6.43
2019-02-27T19:56:38.460Z,6.97
2019-02-27T19:59:52.355Z,7.67
2019-02-27T20:03:06.458Z,7.50
2019-02-27T20:06:20.389Z,7.73
2019-02-27T20:09:34.361Z,6.63
2019-02-27T20:12:52.691Z,5.83
2019-02-27T20:16:04.271Z,5.70
2019-02-27T20:19:22.300Z,5.47
2019-02-27T20:22:34.424Z,6.70
2019-02-27T20:25:48.313Z,6.90
2019-02-27T20:29:04.242Z,7.00
2019-02-27T20:32:18.200Z,7.47
2019-02-27T20:35:34.392Z,6.87
2019-02-27T20:38:50.841Z,6.43
2019-02-27T20:42:04.698Z,6.37
2019-02-27T20:45:19.976Z,5.73
2019-02-27T20:48:36.143Z,5.90
2019-02-27T20:51:49.630Z,6.57
2019-02-27T20:55:05.550Z,6.83
2019-02-27T20:58:19.446Z,6.93
2019-02-27T21:01:33.442Z,7.20
2019-02-27T21:04:47.427Z,8.20
2019-02-27T21:08:02.523Z,8.10
2019-02-27T21:11:16.634Z,7.70
2019-02-27T21:14:30.465Z,7.90
2019-02-27T21:17:44.926Z,7.73
2019-02-27T21:20:58.905Z,7.77
2019-02-27T21:24:12.804Z,7.63
2019-02-27T21:27:28.502Z,7.17
2019-02-27T21:30:42.641Z,7.23
2019-02-27T21:33:56.512Z,7.20
2019-02-27T21:37:10.708Z,7.17
2019-02-27T21:40:25.012Z,7.43
2019-02-27T21:43:40.023Z,7.50
2019-02-27T21:46:54.102Z,7.90
2019-02-27T21:50:11.007Z,8.47
2019-02-27T21:53:26.075Z,8.20
2019-02-27T21:56:40.628Z,7.80
2019-02-27T21:59:54.617Z,7.43
2019-02-27T22:03:08.570Z,8.50
2019-02-27T22:06:24.747Z,7.73
2019-02-27T22:09:38.439Z,7.80
2019-02-27T22:12:52.317Z,7.50
2019-02-27T22:16:06.468Z,6.80
2019-02-27T22:19:20.370Z,6.73
2019-02-27T22:22:34.193Z,6.33
2019-02-27T22:25:48.160Z,6.47
2019-02-27T22:29:02.008Z,5.40
2019-02-27T22:32:15.838Z,4.90
2019-02-27T22:35:30.494Z,5.10
2019-02-27T22:38:44.573Z,4.87
2019-02-27T22:41:58.607Z,5.23
2019-02-27T22:45:14.257Z,5.07
2019-02-27T22:48:28.830Z,5.23
2019-02-27T22:51:44.871Z,4.90
2019-02-27T22:54:58.774Z,5.73
2019-02-27T22:58:12.603Z,5.40
2019-02-27T23:01:29.891Z,5.93
2019-02-27T23:04:43.726Z,6.10
2019-02-27T23:07:57.587Z,5.87
2019-02-27T23:11:11.933Z,6.20
2019-02-27T23:14:25.858Z,6.23
2019-02-27T23:17:39.824Z,6.07
2019-02-27T23:20:55.529Z,6.27
2019-02-27T23:24:10.001Z,6.47
2019-02-27T23:27:26.006Z,5.97
2019-02-27T23:30:43.004Z,6.27
2019-02-27T23:33:56.858Z,6.00
2019-02-27T23:37:10.714Z,6.23
2019-02-27T23:40:24.857Z,6.03
2019-02-27T23:43:38.736Z,5.77
2019-02-27T23:46:57.083Z,5.60
2019-02-27T23:50:11.130Z,6.07
2019-02-27T23:53:27.122Z,5.50
2019-02-27T23:56:41.574Z,5.83
2019-02-27T23:59:55.418Z,6.13
